Time;durP1;ratioP1;P1;durP2;ratioP2;P2;SDS_P1;SDS_P2;PMS_P1;PMS_P2;Temp;Humidity;BMP_temperature;BMP_pressure;BME280_temperature;BME280_humidity;BME280_pressure;Samples;Min_cycle;Max_cycle;Signal;HPM_P1;HPM_P2
2022/06/10 00:01:01;;;;;;;4.82;1.88;;;14.20;99.90;;;13.16;75.91;97874.44;5045602;28;20405;-75
2022/06/10 00:03:28;;;;;;;4.95;2.00;;;14.20;99.90;;;13.15;76.11;97870.19;5045698;28;20422;-75
2022/06/10 00:05:58;;;;;;;4.78;2.10;;;14.20;99.90;;;13.16;76.09;97871.78;5049452;28;20409;-76
2022/06/10 00:08:30;;;;;;;5.07;1.70;;;14.20;99.90;;;13.14;76.44;97869.41;5052064;28;20418;-76
2022/06/10 00:10:57;;;;;;;4.13;1.77;;;14.20;99.90;;;13.11;76.71;97871.72;5042879;28;20856;-76
2022/06/10 00:13:28;;;;;;;4.53;1.73;;;14.20;99.90;;;13.08;76.97;97881.00;5042459;28;20407;-76
2022/06/10 00:15:55;;;;;;;5.82;2.03;;;14.20;99.90;;;13.07;77.42;97874.09;5048739;28;20426;-75
2022/06/10 00:18:23;;;;;;;3.92;2.13;;;14.20;99.90;;;13.10;77.92;97881.53;5048850;28;20551;-75
2022/06/10 00:20:49;;;;;;;4.10;1.90;;;14.10;99.90;;;13.12;78.15;97870.66;5050824;28;20814;-76
2022/06/10 00:23:15;;;;;;;4.20;2.00;;;14.20;99.90;;;13.16;78.47;97880.56;5045846;28;20929;-75
2022/06/10 00:25:43;;;;;;;2.63;1.65;;;14.20;99.90;;;13.20;78.50;97883.50;5051154;28;20409;-76
2022/06/10 00:28:09;;;;;;;3.45;1.83;;;14.20;99.90;;;13.23;78.16;97882.22;5051613;28;20408;-75
2022/06/10 00:30:36;;;;;;;4.63;2.00;;;14.30;99.90;;;13.23;77.79;97882.22;5050080;28;20412;-76
2022/06/10 00:33:03;;;;;;;6.80;2.03;;;14.30;99.90;;;13.22;77.26;97877.94;5051098;28;20397;-75
2022/06/10 00:35:30;;;;;;;4.03;1.90;;;14.30;99.90;;;13.18;77.29;97878.44;5051487;28;20405;-76
2022/06/10 00:37:57;;;;;;;5.15;1.92;;;14.20;99.90;;;13.14;77.29;97884.53;5051660;28;20408;-76
2022/06/10 00:40:31;;;;;;;2.65;1.65;;;14.20;99.90;;;13.05;76.90;97878.84;5051241;28;20428;-76
2022/06/10 00:42:59;;;;;;;4.10;1.98;;;14.10;99.90;;;12.98;77.34;97870.31;5049264;28;20419;-75
2022/06/10 00:45:54;;;;;;;3.78;1.90;;;14.10;99.90;;;12.90;77.62;97877.94;5051323;28;20409;-75
2022/06/10 00:48:27;;;;;;;3.85;1.65;;;14.00;99.90;;;12.83;77.91;97872.84;5043897;28;20457;-76
2022/06/10 00:50:53;;;;;;;4.30;1.70;;;13.90;99.90;;;12.79;78.22;97877.84;5050591;28;20397;-75
2022/06/10 00:53:26;;;;;;;4.72;1.88;;;13.90;99.90;;;12.73;78.17;97873.53;5051400;28;20404;-75
2022/06/10 00:55:55;;;;;;;3.10;2.10;;;13.80;99.90;;;12.65;78.36;97876.66;5051052;28;20416;-76
2022/06/10 00:58:29;;;;;;;5.68;2.40;;;13.80;99.90;;;12.60;78.82;97870.50;5049353;28;20424;-75
2022/06/10 01:00:55;;;;;;;4.40;2.20;;;13.70;99.90;;;12.55;78.67;97881.91;5043850;28;20467;-76
2022/06/10 01:03:21;;;;;;;3.35;2.13;;;13.70;99.90;;;12.49;78.64;97882.88;5046213;28;20425;-75
2022/06/10 01:05:47;;;;;;;4.35;2.10;;;13.60;99.90;;;12.45;78.82;97879.13;5049926;28;20405;-75
2022/06/10 01:08:16;;;;;;;4.05;2.00;;;13.50;99.90;;;12.40;78.97;97890.47;5050050;28;20401;-75
2022/06/10 01:10:56;;;;;;;4.82;1.83;;;13.50;99.90;;;12.37;79.45;97882.22;5047055;28;20442;-75
2022/06/10 01:13:37;;;;;;;2.70;1.90;;;13.50;99.90;;;12.33;79.57;97881.09;5041155;28;20395;-75
2022/06/10 01:16:12;;;;;;;2.70;2.05;;;13.50;99.90;;;12.31;80.02;97883.22;5042180;28;20405;-75
2022/06/10 01:18:53;;;;;;;5.43;2.15;;;13.40;99.90;;;12.27;79.92;97888.22;5042094;28;20402;-75
2022/06/10 01:21:43;;;;;;;3.30;2.00;;;13.40;99.90;;;12.24;80.18;97891.41;5027544;28;20482;-75
2022/06/10 01:24:50;;;;;;;3.25;2.03;;;13.40;99.90;;;12.21;80.22;97886.56;5049928;28;20418;-75
2022/06/10 01:27:49;;;;;;;4.10;1.80;;;13.30;99.90;;;12.18;80.46;97888.94;5048198;28;20405;-75
2022/06/10 01:30:45;;;;;;;5.63;2.15;;;13.30;99.90;;;12.15;80.92;97887.56;5047651;28;20887;-76
2022/06/10 01:33:22;;;;;;;3.25;1.88;;;13.30;99.90;;;12.13;81.09;97889.66;5048594;28;20840;-75
2022/06/10 01:36:00;;;;;;;3.80;2.00;;;13.30;99.90;;;12.10;81.09;97882.22;5049442;28;20401;-75
2022/06/10 01:38:33;;;;;;;3.55;2.15;;;13.20;99.90;;;12.07;81.02;97884.56;5046021;28;20494;-75
2022/06/10 01:41:14;;;;;;;4.88;2.08;;;13.20;99.90;;;12.02;81.02;97887.97;5048082;28;20407;-75
2022/06/10 01:43:52;;;;;;;6.25;2.40;;;13.20;99.90;;;11.98;80.86;97892.13;5048232;28;20409;-75
2022/06/10 01:46:28;;;;;;;4.10;1.90;;;13.20;99.90;;;11.94;80.52;97893.69;5047830;28;20402;-75
2022/06/10 01:49:05;;;;;;;5.47;2.42;;;13.10;99.90;;;11.90;81.17;97892.56;5049697;28;20389;-76
2022/06/10 01:51:40;;;;;;;6.85;2.30;;;13.00;99.90;;;11.88;81.05;97902.63;5050042;28;20870;-76
2022/06/10 01:54:14;;;;;;;7.13;2.00;;;13.00;99.90;;;11.85;80.85;97908.44;5044610;28;20441;-76
2022/06/10 01:56:45;;;;;;;4.60;2.00;;;13.00;99.90;;;11.80;81.23;97895.88;5046820;28;20397;-75
2022/06/10 01:59:18;;;;;;;4.78;2.00;;;13.00;99.90;;;11.78;81.44;97900.66;5048511;28;20945;-74
2022/06/10 02:01:52;;;;;;;3.17;1.88;;;12.90;99.90;;;11.77;81.65;97904.34;5048117;28;20405;-75
2022/06/10 02:04:23;;;;;;;4.05;2.05;;;12.90;99.90;;;11.75;81.71;97897.69;5047700;28;20425;-75
2022/06/10 02:06:54;;;;;;;3.90;1.90;;;12.90;99.90;;;11.72;81.81;97909.56;5049840;28;20466;-75
2022/06/10 02:09:27;;;;;;;5.53;1.98;;;12.80;99.90;;;11.69;81.88;97904.75;5030797;28;20922;-75
2022/06/10 02:11:59;;;;;;;5.63;2.00;;;12.80;99.90;;;11.67;81.83;97906.84;5048759;28;20401;-75
2022/06/10 02:14:30;;;;;;;3.78;1.90;;;12.80;99.90;;;11.63;81.79;97903.88;5049985;28;20934;-74
2022/06/10 02:16:59;;;;;;;7.60;2.13;;;12.80;99.90;;;11.63;81.34;97901.22;5047307;28;20398;-75
2022/06/10 02:19:31;;;;;;;3.42;1.90;;;12.80;99.90;;;11.59;81.73;97896.66;5049532;28;20484;-74
2022/06/10 02:22:04;;;;;;;6.28;2.20;;;12.70;99.90;;;11.56;82.16;97908.56;5043379;28;20401;-75
2022/06/10 02:24:40;;;;;;;3.15;1.92;;;12.70;99.90;;;11.54;82.37;97913.28;5045870;28;20898;-75
2022/06/10 02:27:11;;;;;;;3.40;2.05;;;12.70;99.90;;;11.52;82.38;97918.03;5048542;28;20401;-74
2022/06/10 02:29:44;;;;;;;4.10;2.30;;;12.60;99.90;;;11.48;82.24;97908.16;5046990;28;20543;-75
2022/06/10 02:32:12;;;;;;;4.55;2.30;;;12.70;99.90;;;11.45;82.00;97916.59;5049617;28;20458;-76
2022/06/10 02:34:38;;;;;;;5.30;2.17;;;12.60;99.90;;;11.42;82.02;97919.75;5047157;28;20393;-75
2022/06/10 02:37:12;;;;;;;4.40;2.25;;;12.60;99.90;;;11.39;82.36;97920.22;5049656;28;20911;-76
2022/06/10 02:39:48;;;;;;;3.78;2.03;;;12.50;99.90;;;11.38;82.69;97926.56;5046972;28;20401;-75
2022/06/10 02:42:24;;;;;;;6.70;2.55;;;12.50;99.90;;;11.36;82.21;97926.00;5045352;28;20406;-76
2022/06/10 02:44:57;;;;;;;4.75;2.20;;;12.50;99.90;;;11.34;82.07;97926.28;5043688;28;20428;-76
2022/06/10 02:47:31;;;;;;;3.50;2.03;;;12.50;99.90;;;11.30;82.03;97924.31;5042316;28;20457;-76
2022/06/10 02:49:58;;;;;;;8.20;2.35;;;12.40;99.90;;;11.26;81.98;97929.31;5045833;28;20506;-75
2022/06/10 02:52:32;;;;;;;6.17;2.30;;;12.40;99.90;;;11.22;81.89;97922.88;5047709;28;20497;-75
2022/06/10 02:54:58;;;;;;;3.70;2.20;;;12.40;99.90;;;11.18;82.01;97927.06;5045659;28;20455;-75
2022/06/10 03:03:17;;;;;;;5.05;2.35;;;12.30;99.90;;;11.09;82.65;97931.97;5047094;28;20459;-75
2022/06/10 03:05:53;;;;;;;6.43;2.40;;;12.30;99.90;;;11.08;82.75;97938.31;5047629;28;20957;-75
2022/06/10 03:08:26;;;;;;;5.95;2.55;;;12.30;99.90;;;11.06;82.70;97942.22;5046832;28;20397;-75
2022/06/10 03:11:09;;;;;;;5.57;2.38;;;12.20;99.90;;;11.03;82.90;97934.78;5048560;28;20413;-76
2022/06/10 03:13:54;;;;;;;5.57;2.33;;;12.20;99.90;;;11.01;83.23;97942.16;5049414;28;20894;-76
2022/06/10 03:16:42;;;;;;;4.50;2.30;;;12.10;99.90;;;11.00;83.20;97949.28;5050700;28;20447;-75
2022/06/10 03:19:24;;;;;;;3.75;2.10;;;12.20;99.90;;;11.00;83.13;97954.59;5044415;28;20706;-76
2022/06/10 03:22:02;;;;;;;4.53;2.10;;;12.10;99.90;;;10.97;82.93;97962.22;5052093;28;20437;-76
2022/06/10 03:24:47;;;;;;;4.28;2.30;;;12.10;99.90;;;10.94;83.25;97957.41;5051910;28;20414;-76
2022/06/10 03:27:22;;;;;;;3.78;2.30;;;12.10;99.90;;;10.91;83.45;97966.63;5034447;28;20405;-75
2022/06/10 03:29:54;;;;;;;5.10;2.40;;;12.00;99.90;;;10.91;83.33;97966.63;5050573;28;20768;-75
2022/06/10 03:32:27;;;;;;;8.27;2.67;;;12.10;99.90;;;10.91;83.35;97969.25;5045013;28;20404;-75
2022/06/10 03:35:02;;;;;;;5.30;2.35;;;12.10;99.90;;;10.91;82.99;97969.25;5049097;28;20393;-76
2022/06/10 03:37:28;;;;;;;6.18;2.53;;;12.10;99.90;;;10.89;83.41;97965.25;5051386;28;20404;-75
2022/06/10 03:39:56;;;;;;;4.65;2.20;;;12.10;99.90;;;10.89;83.27;97971.38;5052570;28;20401;-75
2022/06/10 03:42:25;;;;;;;8.33;2.80;;;12.10;99.90;;;10.87;83.57;97970.78;5055020;28;20404;-75
2022/06/10 03:44:55;;;;;;;4.63;2.40;;;12.00;99.90;;;10.86;83.72;97970.00;5056549;28;20431;-75
2022/06/10 03:47:27;;;;;;;3.40;2.13;;;12.00;99.90;;;10.86;84.16;97974.47;5051533;28;20590;-75
2022/06/10 03:49:59;;;;;;;5.57;2.47;;;12.00;99.90;;;10.89;84.17;97975.88;5052378;28;20485;-75
2022/06/10 03:52:30;;;;;;;5.22;2.28;;;12.00;99.90;;;10.91;83.99;97977.22;5052458;28;20740;-75
2022/06/10 03:54:56;;;;;;;4.45;2.63;;;12.10;99.90;;;10.93;83.78;97983.06;5052395;28;20393;-75
2022/06/10 03:57:22;;;;;;;5.60;2.58;;;12.10;99.90;;;10.92;84.11;97978.81;5052520;28;20416;-75
2022/06/10 03:59:48;;;;;;;4.47;2.40;;;12.10;99.90;;;10.93;84.18;97983.06;5050917;28;20459;-76
2022/06/10 04:02:14;;;;;;;4.57;2.70;;;12.00;99.90;;;10.94;84.28;97974.09;5051255;28;20484;-76
2022/06/10 04:04:42;;;;;;;3.47;2.67;;;12.10;99.90;;;10.96;84.30;97981.81;5050662;28;20822;-74
2022/06/10 04:07:11;;;;;;;4.73;2.40;;;12.10;99.90;;;10.98;84.58;97985.81;5052199;28;20416;-75
2022/06/10 04:09:37;;;;;;;4.35;2.20;;;12.10;99.90;;;11.00;84.49;97988.22;5049190;28;20969;-76
2022/06/10 04:12:04;;;;;;;3.65;2.42;;;12.10;99.90;;;11.04;84.42;97994.66;5051947;28;20406;-76
2022/06/10 04:14:30;;;;;;;5.47;2.15;;;12.10;99.90;;;11.06;84.50;97989.91;5051918;28;20406;-76
2022/06/10 04:16:56;;;;;;;4.45;2.20;;;12.10;99.90;;;11.09;84.25;97995.56;5050761;28;20410;-76
2022/06/10 04:19:22;;;;;;;6.93;2.67;;;12.20;99.90;;;11.13;84.37;97995.88;5048844;28;20401;-76
2022/06/10 04:21:48;;;;;;;6.70;2.13;;;12.20;99.90;;;11.17;84.51;98005.75;5050449;28;20408;-76
2022/06/10 04:24:15;;;;;;;4.25;2.08;;;12.30;99.90;;;11.22;84.61;97999.72;5049994;28;20921;-75
2022/06/10 04:26:41;;;;;;;6.35;2.42;;;12.30;99.90;;;11.25;84.44;98002.72;5050294;28;20427;-76
2022/06/10 04:29:09;;;;;;;3.45;2.00;;;12.30;99.90;;;11.30;84.32;98006.47;5051235;28;20899;-76
2022/06/10 04:31:35;;;;;;;4.43;2.20;;;12.40;99.90;;;11.34;84.63;98008.44;5050909;28;20398;-76
2022/06/10 04:34:01;;;;;;;3.87;2.33;;;12.40;99.90;;;11.39;84.66;98002.41;5050344;28;20558;-76
2022/06/10 04:36:28;;;;;;;3.78;2.42;;;12.40;99.90;;;11.42;84.62;98005.38;5051521;28;20740;-76
2022/06/10 04:38:54;;;;;;;7.22;2.50;;;12.50;99.90;;;11.46;84.73;98014.44;5049002;28;20809;-76
2022/06/10 04:41:22;;;;;;;3.47;2.20;;;12.60;99.90;;;11.52;84.84;98007.38;5033753;28;20461;-76
2022/06/10 04:43:48;;;;;;;5.57;2.30;;;12.60;99.90;;;11.58;84.90;98012.50;5051389;28;20414;-76
2022/06/10 04:46:23;;;;;;;3.30;2.28;;;12.60;99.90;;;11.63;84.91;98007.31;5051327;28;20732;-76
2022/06/10 04:48:49;;;;;;;5.35;2.20;;;12.60;99.90;;;11.68;84.96;98009.22;5050874;28;20402;-76
2022/06/10 04:51:15;;;;;;;4.97;2.60;;;12.80;99.90;;;11.73;85.01;98009.28;5033381;28;20926;-76
2022/06/10 04:53:41;;;;;;;4.07;2.40;;;12.70;99.90;;;11.80;85.25;98015.25;5051318;28;20397;-76
2022/06/10 04:56:07;;;;;;;3.43;2.30;;;12.80;99.90;;;11.86;85.36;98019.59;5051182;28;20898;-76
2022/06/10 04:58:34;;;;;;;5.47;2.55;;;12.90;99.90;;;11.94;85.42;98013.09;5045410;28;20398;-76
2022/06/10 05:01:00;;;;;;;3.97;2.40;;;12.90;99.90;;;12.00;85.51;98018.22;5048515;28;20416;-76
2022/06/10 05:03:26;;;;;;;4.60;2.42;;;13.00;99.90;;;12.08;85.64;98024.94;5051028;28;20410;-76
2022/06/10 05:05:52;;;;;;;4.75;2.63;;;13.10;99.90;;;12.16;85.97;98010.47;5048911;28;20448;-77
2022/06/10 05:08:18;;;;;;;4.55;2.58;;;13.10;99.90;;;12.23;85.73;98019.84;5044477;28;20411;-76
2022/06/10 05:10:44;;;;;;;5.30;2.50;;;13.20;99.90;;;12.31;85.54;98023.94;5048090;28;20923;-76
2022/06/10 05:13:11;;;;;;;6.83;2.80;;;13.30;99.90;;;12.37;85.63;98020.28;5045308;28;20394;-76
2022/06/10 05:15:38;;;;;;;5.53;2.50;;;13.40;99.90;;;12.43;85.35;98027.25;5047924;28;20970;-76
2022/06/10 05:18:06;;;;;;;5.95;2.53;;;13.40;99.90;;;12.50;85.55;98033.19;5048908;28;20431;-76
2022/06/10 05:20:38;;;;;;;6.60;2.55;;;13.50;99.90;;;12.56;85.42;98026.88;5049810;28;20957;-77
2022/06/10 05:23:06;;;;;;;5.05;2.35;;;13.50;99.90;;;12.62;85.31;98028.56;5048973;28;20420;-76
2022/06/10 05:25:33;;;;;;;6.78;2.67;;;13.60;99.90;;;12.68;85.44;98030.22;5065204;22;20431;-78
2022/06/10 05:27:59;;;;;;;6.72;2.60;;;13.60;99.90;;;12.73;85.33;98038.25;5068529;28;20395;-78
2022/06/10 05:30:30;;;;;;;5.90;2.27;;;13.70;99.90;;;12.78;85.13;98034.81;5050760;28;20424;-78
2022/06/10 05:32:58;;;;;;;5.82;2.22;;;13.70;99.90;;;12.83;85.04;98036.75;5069978;28;20722;-78
2022/06/10 05:35:24;;;;;;;5.70;2.63;;;13.80;99.90;;;12.88;84.68;98036.81;5066467;28;20500;-81
2022/06/10 05:37:51;;;;;;;7.18;2.58;;;13.80;99.90;;;12.92;84.76;98040.59;5051867;28;20405;-81
2022/06/10 05:40:19;;;;;;;3.90;2.42;;;13.80;99.90;;;12.96;84.82;98039.00;5051013;28;20432;-81
2022/06/10 05:42:45;;;;;;;8.73;2.58;;;13.90;99.90;;;12.98;84.65;98043.03;5050194;28;20405;-80
2022/06/10 05:45:14;;;;;;;10.15;2.78;;;13.90;99.90;;;13.02;84.44;98038.00;5052281;28;20409;-79
2022/06/10 05:47:41;;;;;;;9.25;2.58;;;14.00;99.90;;;13.05;84.62;98035.66;5050312;28;20397;-79
2022/06/10 05:50:14;;;;;;;5.80;2.90;;;14.00;99.90;;;13.09;84.56;98042.06;5050413;28;20493;-77
2022/06/10 05:52:41;;;;;;;6.40;2.60;;;14.00;99.90;;;13.11;84.52;98039.97;5044292;28;20506;-77
2022/06/10 05:55:09;;;;;;;8.05;2.78;;;14.00;99.90;;;13.14;84.41;98042.19;5049615;28;20410;-77
2022/06/10 05:57:35;;;;;;;6.05;2.50;;;14.10;99.90;;;13.18;84.27;98050.44;5050520;28;20500;-77
2022/06/10 06:00:03;;;;;;;6.65;2.63;;;14.10;99.90;;;13.21;84.16;98046.47;5049991;28;20901;-76
2022/06/10 06:02:30;;;;;;;6.03;2.85;;;14.10;99.90;;;13.25;84.30;98052.88;5050330;28;20894;-77
2022/06/10 06:04:56;;;;;;;6.93;2.47;;;14.10;99.90;;;13.28;84.04;98055.06;5049655;28;20424;-76
2022/06/10 06:07:28;;;;;;;8.65;2.60;;;14.20;99.90;;;13.32;84.09;98056.16;5049937;28;20429;-79
2022/06/10 06:09:55;;;;;;;5.65;2.53;;;14.20;99.90;;;13.35;83.41;98053.78;5047513;28;20504;-81
2022/06/10 06:12:22;;;;;;;5.63;2.63;;;14.20;99.90;;;13.40;83.62;98055.69;5050368;28;20843;-76
2022/06/10 06:14:49;;;;;;;6.93;2.70;;;14.30;99.90;;;13.44;83.71;98064.78;5050317;28;20421;-76
2022/06/10 06:17:19;;;;;;;8.35;3.00;;;14.30;99.90;;;13.48;83.49;98061.34;5050000;28;20398;-77
2022/06/10 06:19:45;;;;;;;7.20;2.85;;;14.40;99.90;;;13.53;82.36;98064.06;5050042;28;20398;-76
2022/06/10 06:22:11;;;;;;;5.40;2.50;;;14.40;99.90;;;13.60;82.59;98060.41;5050350;28;20401;-77
2022/06/10 06:24:39;;;;;;;12.27;2.67;;;14.50;99.90;;;13.64;82.36;98070.28;5050151;28;20420;-77
2022/06/10 06:27:06;;;;;;;8.98;2.70;;;14.50;99.90;;;13.69;82.01;98072.97;5049191;28;20479;-78
2022/06/10 06:29:32;;;;;;;6.70;2.60;;;14.60;99.90;;;13.76;82.10;98070.09;5049808;28;20432;-75
2022/06/10 06:31:58;;;;;;;8.00;2.78;;;14.60;99.90;;;13.81;82.25;98072.81;5049744;28;20417;-78
2022/06/10 06:34:26;;;;;;;10.00;2.70;;;14.70;99.90;;;13.84;82.10;98067.75;5050537;28;20420;-78
2022/06/10 06:36:55;;;;;;;4.45;2.15;;;14.70;99.90;;;13.88;82.04;98071.53;5050233;28;20752;-76
2022/06/10 06:39:24;;;;;;;6.35;2.40;;;14.80;99.90;;;13.91;82.07;98065.69;5049635;28;20958;-77
2022/06/10 06:41:52;;;;;;;5.70;2.40;;;14.80;99.90;;;13.95;82.11;98072.13;5042080;28;20408;-77
2022/06/10 06:44:19;;;;;;;9.20;2.67;;;14.80;99.90;;;13.98;82.12;98075.31;5043379;28;20428;-82
2022/06/10 06:46:45;;;;;;;10.48;2.70;;;14.80;99.90;;;14.00;80.74;98068.66;5050120;28;20736;-80
2022/06/10 06:49:18;;;;;;;4.23;2.20;;;14.90;99.90;;;14.06;81.09;98064.22;5051385;28;20488;-78
2022/06/10 06:51:44;;;;;;;5.28;2.28;;;14.90;99.90;;;14.11;81.20;98075.69;5054258;28;20499;-77
2022/06/10 06:54:10;;;;;;;5.80;2.25;;;15.00;99.90;;;14.14;81.36;98077.81;5053769;28;20440;-80
2022/06/10 06:56:37;;;;;;;3.77;2.20;;;15.00;99.90;;;14.17;81.45;98069.31;5053718;28;20940;-80
2022/06/10 06:59:06;;;;;;;4.82;2.25;;;15.00;99.90;;;14.20;81.47;98084.81;5053406;28;20736;-80
2022/06/10 07:01:33;;;;;;;7.70;2.78;;;15.00;99.90;;;14.23;81.55;98075.47;5054211;28;20401;-79
2022/06/10 07:03:59;;;;;;;10.63;2.70;;;15.10;99.90;;;14.23;79.99;98073.63;5053708;28;20417;-80
2022/06/10 07:06:25;;;;;;;7.83;2.50;;;15.10;99.90;;;14.27;80.60;98072.06;5053603;28;20895;-79
2022/06/10 07:08:51;;;;;;;6.85;2.58;;;15.10;99.90;;;14.31;79.86;98077.66;5049937;28;20937;-79
2022/06/10 07:11:18;;;;;;;5.07;1.92;;;15.20;99.90;;;14.34;79.74;98075.28;5055624;28;20417;-85
2022/06/10 07:13:44;;;;;;;6.30;2.47;;;15.20;99.90;;;14.38;80.05;98069.44;5054043;28;20426;-79
2022/06/10 07:16:11;;;;;;;7.30;2.42;;;15.20;99.90;;;14.43;80.35;98080.16;5053635;28;20420;-80
2022/06/10 07:18:38;;;;;;;5.82;2.35;;;15.30;99.90;;;14.47;80.28;98084.69;5053290;28;20432;-79
2022/06/10 07:21:04;;;;;;;11.47;2.90;;;15.30;99.90;;;14.52;80.26;98089.25;5053424;28;20393;-79
2022/06/10 07:23:31;;;;;;;6.00;2.60;;;15.30;99.90;;;14.56;79.47;98088.50;5053272;28;20414;-80
2022/06/10 07:25:59;;;;;;;4.50;2.40;;;15.40;99.90;;;14.61;79.68;98090.38;5052889;28;20905;-80
2022/06/10 07:28:26;;;;;;;7.20;2.92;;;15.50;99.90;;;14.67;79.70;98091.97;5048220;28;20403;-80
2022/06/10 07:30:52;;;;;;;8.43;2.73;;;15.50;99.90;;;14.71;79.80;98093.88;5046988;28;20408;-80
2022/06/10 07:33:20;;;;;;;7.20;3.00;;;15.50;99.90;;;14.76;79.53;98085.09;5034097;28;20763;-80
2022/06/10 07:35:46;;;;;;;9.02;3.10;;;15.60;99.90;;;14.80;78.98;98083.53;5051442;28;20428;-79
2022/06/10 07:38:12;;;;;;;6.22;2.67;;;15.60;99.90;;;14.84;78.49;98076.59;5046288;28;20910;-78
2022/06/10 07:43:27;;;;;;;12.63;3.55;;;15.70;99.90;;;14.88;75.31;98079.56;5045136;28;20452;-78
2022/06/10 07:45:54;;;;;;;9.33;3.07;;;15.70;99.90;;;14.95;75.79;98075.59;5052756;28;20466;-77
2022/06/10 07:48:21;;;;;;;11.60;3.45;;;15.70;99.90;;;14.97;73.11;98077.97;5053155;28;20404;-77
2022/06/10 07:50:48;;;;;;;9.27;2.92;;;15.80;99.90;;;15.04;74.27;98076.66;5053206;28;20402;-78
2022/06/10 07:53:15;;;;;;;6.93;2.50;;;15.80;99.90;;;15.10;74.59;98074.84;5053148;28;20413;-79
2022/06/10 07:55:44;;;;;;;8.27;2.58;;;15.90;99.90;;;15.15;74.82;98074.84;5053040;28;20402;-78
2022/06/10 07:58:11;;;;;;;7.03;2.35;;;16.00;99.90;;;15.24;74.92;98080.47;5052862;28;20398;-78
2022/06/10 08:00:37;;;;;;;7.90;2.40;;;16.00;99.90;;;15.31;75.33;98078.34;5033649;28;20421;-78
2022/06/10 08:03:05;;;;;;;11.15;3.13;;;16.10;99.90;;;15.36;74.69;98073.81;5053147;28;20409;-78
2022/06/10 08:05:33;;;;;;;5.03;2.50;;;16.20;99.90;;;15.46;75.14;98070.34;5053016;28;20970;-78
2022/06/10 08:08:01;;;;;;;10.43;2.63;;;16.20;99.90;;;15.54;74.82;98074.41;5053001;28;20424;-79
2022/06/10 08:10:31;;;;;;;9.83;2.97;;;16.30;99.90;;;15.58;74.19;98068.25;5052716;28;20393;-79
2022/06/10 08:12:57;;;;;;;7.80;2.47;;;16.40;99.90;;;15.66;74.12;98064.25;5052992;28;20402;-79
2022/06/10 08:15:24;;;;;;;9.55;2.63;;;16.40;99.90;;;15.74;73.07;98055.72;5052525;28;20405;-79
2022/06/10 08:17:51;;;;;;;5.75;2.38;;;16.50;99.90;;;15.81;72.30;98064.25;5052612;28;20770;-79
2022/06/10 08:20:21;;;;;;;7.18;2.72;;;16.60;99.90;;;15.91;72.64;98069.59;5034132;28;20767;-79
2022/06/10 08:22:49;;;;;;;6.30;2.70;;;16.70;99.90;;;16.01;72.29;98074.13;5052387;28;20394;-79
2022/06/10 08:25:16;;;;;;;6.50;2.47;;;16.80;99.90;;;16.08;72.42;98070.13;5052243;28;20413;-79
2022/06/10 08:27:42;;;;;;;6.43;2.53;;;16.80;99.90;;;16.17;72.56;98068.47;5052361;28;20887;-79
2022/06/10 08:30:14;;;;;;;5.03;2.20;;;16.90;99.90;;;16.27;72.95;98068.47;5052087;28;20447;-78
2022/06/10 08:32:40;;;;;;;6.97;2.47;;;17.00;99.90;;;16.34;71.32;98068.19;5052309;28;20440;-78
2022/06/10 08:35:06;;;;;;;7.38;2.38;;;17.10;99.90;;;16.46;70.77;98070.56;5052078;28;20455;-79
2022/06/10 08:37:33;;;;;;;5.83;2.23;;;17.20;99.90;;;16.57;69.67;98064.09;5050864;28;20683;-78
2022/06/10 08:40:00;;;;;;;8.75;2.05;;;17.30;99.90;;;16.68;69.88;98067.59;5051855;28;20459;-78
2022/06/10 08:42:35;;;;;;;6.00;2.00;;;17.40;99.90;;;16.79;69.82;98069.94;5052101;28;20401;-78
2022/06/10 08:45:18;;;;;;;9.27;2.60;;;17.50;99.90;;;16.89;68.54;98071.75;5051830;28;20740;-78
2022/06/10 08:48:01;;;;;;;7.03;2.30;;;17.60;99.90;;;17.02;68.80;98068.47;5052111;28;20408;-79
2022/06/10 08:50:50;;;;;;;10.90;2.15;;;17.70;99.90;;;17.18;68.74;98072.69;5051851;28;20397;-79
2022/06/10 08:53:41;;;;;;;7.68;2.03;;;17.90;99.90;;;17.39;68.54;98068.78;5051872;28;20394;-79
2022/06/10 08:56:17;;;;;;;5.10;2.00;;;18.00;99.90;;;17.65;67.58;98074.81;5051733;28;20484;-79
2022/06/10 08:58:56;;;;;;;9.38;2.25;;;18.20;99.90;;;17.79;63.13;98065.06;5051392;28;20902;-79
2022/06/10 09:01:23;;;;;;;6.38;1.85;;;18.50;97.80;;;18.04;63.63;98069.38;5051642;28;20895;-79
2022/06/10 09:03:56;;;;;;;5.63;2.00;;;18.60;98.00;;;18.30;63.64;98066.44;5033537;28;20425;-79
2022/06/10 09:06:31;;;;;;;5.97;2.20;;;18.90;98.00;;;18.53;62.85;98069.13;5033455;28;20410;-79
2022/06/10 09:09:04;;;;;;;5.03;2.00;;;19.20;97.20;;;18.65;60.27;98060.72;5051188;28;20405;-79
2022/06/10 09:11:38;;;;;;;6.72;2.17;;;19.30;94.00;;;18.86;60.92;98066.66;5050950;28;20402;-79
2022/06/10 09:14:14;;;;;;;6.10;1.95;;;19.40;94.50;;;19.07;60.50;98061.81;5051414;28;20894;-79
2022/06/10 09:16:49;;;;;;;5.57;1.75;;;19.60;94.10;;;19.30;59.62;98063.63;5051165;28;20428;-79
2022/06/10 09:19:25;;;;;;;10.00;2.20;;;19.80;93.20;;;19.41;57.50;98065.06;5050928;28;20487;-79
2022/06/10 09:22:01;;;;;;;5.90;1.80;;;20.00;91.00;;;19.63;58.14;98053.75;5051178;28;20393;-79
2022/06/10 09:24:34;;;;;;;2.53;1.23;;;20.20;91.50;;;19.77;58.33;98065.34;5051176;28;20429;-79
2022/06/10 09:27:11;;;;;;;4.43;1.70;;;20.40;91.70;;;19.81;59.17;98063.66;5033265;28;20414;-78
2022/06/10 09:29:38;;;;;;;4.90;1.75;;;20.40;92.10;;;19.94;58.19;98062.91;5050971;28;20404;-79
2022/06/10 09:32:10;;;;;;;6.50;2.08;;;20.50;91.30;;;20.14;56.23;98069.84;5051181;28;20425;-79
2022/06/10 09:34:51;;;;;;;5.18;1.70;;;20.70;89.00;;;20.48;55.93;98075.66;5051131;28;20401;-79
2022/06/10 09:37:32;;;;;;;6.18;1.73;;;21.00;88.90;;;20.67;53.72;98074.78;5051032;28;20394;-79
2022/06/10 09:43:26;;;;;;;6.57;1.83;;;21.40;85.00;;;21.14;53.58;98066.25;5051035;28;20740;-79
2022/06/10 09:46:07;;;;;;;6.03;1.80;;;21.60;84.20;;;21.34;50.63;98066.94;5050569;28;21333;-79
2022/06/10 09:48:57;;;;;;;3.78;1.20;;;21.80;80.00;;;21.46;49.58;98065.28;5050696;28;20420;-79
2022/06/10 09:51:38;;;;;;;7.20;2.03;;;22.00;78.20;;;21.13;45.11;98063.84;5050100;28;20840;-79
2022/06/10 09:54:40;;;;;;;6.85;1.67;;;21.70;71.20;;;21.00;46.60;98070.06;5050844;28;20389;-79
2022/06/10 09:57:40;;;;;;;6.00;1.50;;;21.60;74.10;;;20.89;47.67;98066.00;5049176;28;20417;-79
2022/06/10 10:00:15;;;;;;;4.85;1.70;;;21.50;74.30;;;20.69;48.16;98059.91;5016378;28;20505;-79
2022/06/10 10:02:56;;;;;;;5.80;1.70;;;21.30;74.90;;;20.60;49.58;98063.63;5050723;28;20401;-79
2022/06/10 10:05:40;;;;;;;4.85;1.30;;;21.20;76.80;;;20.59;51.30;98054.75;5050498;28;20911;-79
2022/06/10 10:08:17;;;;;;;4.20;1.50;;;21.20;79.30;;;20.72;52.29;98053.94;5050512;28;20819;-79
2022/06/10 10:10:51;;;;;;;6.88;2.10;;;21.30;80.50;;;20.47;48.40;98052.56;5050701;28;20949;-79
2022/06/10 10:13:56;;;;;;;8.73;2.20;;;21.20;74.80;;;20.21;48.29;98061.38;5050775;28;20393;-79
2022/06/10 10:16:43;;;;;;;9.02;2.20;;;20.90;75.10;;;19.95;49.66;98055.63;5026622;28;20497;-80
2022/06/10 10:19:36;;;;;;;7.10;1.63;;;20.60;76.50;;;19.76;51.67;98050.31;5050153;28;20400;-79
2022/06/10 10:22:28;;;;;;;7.20;1.70;;;20.50;78.70;;;19.63;53.15;98057.22;5050177;28;20408;-80
2022/06/10 10:24:54;;;;;;;5.38;1.90;;;20.30;81.30;;;19.53;53.99;98048.56;5031992;28;20417;-79
2022/06/10 10:27:28;;;;;;;6.78;1.80;;;20.20;82.30;;;19.45;53.37;98052.66;5050234;28;20428;-80
2022/06/10 10:30:03;;;;;;;7.97;2.60;;;20.10;81.50;;;19.36;51.27;98054.41;5049923;28;20404;-78
2022/06/10 10:32:36;;;;;;;5.03;2.00;;;20.10;80.30;;;19.38;52.57;98059.50;5050649;28;20890;-78
2022/06/10 10:35:18;;;;;;;8.18;1.80;;;20.10;80.70;;;19.40;52.79;98057.28;5050035;28;20416;-78
2022/06/10 10:37:55;;;;;;;7.03;1.95;;;20.10;80.90;;;19.45;52.60;98054.56;5032391;28;20413;-78
2022/06/10 10:40:31;;;;;;;5.57;1.90;;;20.10;80.70;;;19.52;52.10;98055.81;5049816;28;20404;-78
2022/06/10 10:43:02;;;;;;;4.95;1.70;;;20.20;80.20;;;19.86;52.54;98052.03;5050267;28;20397;-78
2022/06/10 10:45:33;;;;;;;4.63;1.45;;;20.50;80.90;;;20.43;52.51;98056.94;5048830;28;20471;-79
2022/06/10 10:48:18;;;;;;;5.33;1.60;;;21.00;81.40;;;21.55;51.64;98052.69;5050190;28;20398;-79